Time;durP1;ratioP1;P1;durP2;ratioP2;P2;SDS_P1;SDS_P2;PMS_P1;PMS_P2;Temp;Humidity;BMP_temperature;BMP_pressure;BME280_temperature;BME280_humidity;BME280_pressure;Samples;Min_cycle;Max_cycle;Signal;HPM_P1;HPM_P2
2021/01/19 00:01:37;;;;;;;19.30;6.27;;;5.50;93.80;;;;;;6275578;22;20000;-81
2021/01/19 00:04:02;;;;;;;14.40;6.83;;;5.50;93.80;;;;;;6275684;22;20020;-81
2021/01/19 00:06:28;;;;;;;15.20;6.57;;;5.50;93.90;;;;;;6275785;22;20192;-81
2021/01/19 00:08:53;;;;;;;17.27;6.27;;;5.50;93.80;;;;;;6274892;22;19999;-82
2021/01/19 00:11:19;;;;;;;19.83;7.07;;;5.40;93.70;;;;;;6275469;22;20003;-81
2021/01/19 00:13:45;;;;;;;21.20;6.67;;;5.50;93.70;;;;;;6275604;22;20000;-81
2021/01/19 00:16:10;;;;;;;18.03;6.13;;;5.50;94.00;;;;;;6275767;22;20004;-81
2021/01/19 00:18:36;;;;;;;12.63;5.57;;;5.50;93.40;;;;;;6248566;22;20070;-81
2021/01/19 00:21:04;;;;;;;16.17;5.87;;;5.50;93.80;;;;;;6275033;22;20079;-81
2021/01/19 00:23:30;;;;;;;13.93;5.60;;;5.50;93.60;;;;;;6248653;22;20422;-81
2021/01/19 00:25:56;;;;;;;17.77;5.97;;;5.50;93.30;;;;;;6275469;22;20003;-81
2021/01/19 00:28:21;;;;;;;17.37;5.63;;;5.50;93.20;;;;;;6275611;22;20418;-81
2021/01/19 00:30:47;;;;;;;13.60;5.70;;;5.50;93.30;;;;;;6274679;22;20082;-81
2021/01/19 00:33:12;;;;;;;14.27;5.30;;;5.50;93.10;;;;;;6275475;22;20012;-81
2021/01/19 00:35:41;;;;;;;11.77;5.20;;;5.50;93.10;;;;;;6277306;22;20465;-82
2021/01/19 00:38:08;;;;;;;17.83;6.20;;;5.50;93.00;;;;;;6278067;22;19999;-82
2021/01/19 00:40:33;;;;;;;14.90;5.47;;;5.50;93.00;;;;;;6250317;22;20086;-82
2021/01/19 00:42:59;;;;;;;18.20;5.30;;;5.50;92.90;;;;;;6278024;22;20011;-82
2021/01/19 00:45:25;;;;;;;20.47;6.00;;;5.50;92.70;;;;;;6251150;22;20004;-82
2021/01/19 00:47:51;;;;;;;21.47;5.33;;;5.50;92.40;;;;;;6278470;22;20462;-82
2021/01/19 00:50:17;;;;;;;17.07;5.50;;;5.50;92.20;;;;;;6275755;22;20008;-82
2021/01/19 00:52:43;;;;;;;16.63;5.10;;;5.50;92.00;;;;;;6275640;22;20003;-81
2021/01/19 00:55:10;;;;;;;14.83;5.20;;;5.50;91.90;;;;;;6275228;22;20010;-81
2021/01/19 00:57:39;;;;;;;12.40;4.70;;;5.50;91.70;;;;;;6249106;22;20050;-81
2021/01/19 01:00:06;;;;;;;16.08;4.80;;;5.50;91.70;;;;;;6276525;22;20338;-81
2021/01/19 01:02:36;;;;;;;11.47;3.97;;;5.50;91.60;;;;;;6277010;22;20038;-81
2021/01/19 01:05:04;;;;;;;12.15;4.30;;;5.50;91.70;;;;;;6277102;22;20074;-81
2021/01/19 01:07:37;;;;;;;10.80;3.93;;;5.50;91.40;;;;;;6276900;22;20074;-81
2021/01/19 01:10:05;;;;;;;12.63;3.93;;;5.50;91.10;;;;;;6276417;22;20334;-81
2021/01/19 01:12:31;;;;;;;14.70;4.87;;;5.60;91.20;;;;;;6276844;22;20449;-81
2021/01/19 01:14:56;;;;;;;11.40;4.20;;;5.50;91.30;;;;;;6277433;22;20000;-81
2021/01/19 01:17:22;;;;;;;15.37;4.93;;;5.50;91.50;;;;;;6276991;22;20006;-81
2021/01/19 01:19:48;;;;;;;10.13;4.57;;;5.50;91.40;;;;;;6276235;22;20004;-81
2021/01/19 01:22:13;;;;;;;10.40;4.07;;;5.50;91.40;;;;;;6276781;22;19995;-81
2021/01/19 01:24:39;;;;;;;9.77;4.03;;;5.50;91.50;;;;;;6278149;22;20026;-81
2021/01/19 01:27:05;;;;;;;13.47;4.07;;;5.50;91.20;;;;;;6276980;22;19996;-81
2021/01/19 01:29:30;;;;;;;13.37;4.10;;;5.60;91.20;;;;;;6249005;22;20098;-81
2021/01/19 01:31:56;;;;;;;14.73;4.37;;;5.60;91.30;;;;;;6276606;22;19999;-81
2021/01/19 01:34:22;;;;;;;16.03;4.43;;;5.50;91.20;;;;;;6276679;22;20014;-81
2021/01/19 01:36:48;;;;;;;11.53;3.60;;;5.50;91.10;;;;;;6276842;22;20031;-81
2021/01/19 01:39:13;;;;;;;12.03;3.60;;;5.40;90.80;;;;;;6276074;22;20034;-81
2021/01/19 01:41:39;;;;;;;13.70;3.87;;;5.50;91.00;;;;;;6277159;22;20004;-81
2021/01/19 01:44:05;;;;;;;12.90;3.90;;;5.50;90.80;;;;;;6276611;22;19996;-81
2021/01/19 01:46:33;;;;;;;11.23;3.57;;;5.50;90.80;;;;;;6276641;22;20049;-81
2021/01/19 01:49:02;;;;;;;16.70;4.00;;;5.50;90.60;;;;;;6248857;22;20086;-81
2021/01/19 01:51:29;;;;;;;9.48;3.15;;;5.50;90.40;;;;;;6276499;22;20004;-81
2021/01/19 01:53:56;;;;;;;9.80;3.23;;;5.50;90.40;;;;;;6249343;22;20426;-81
2021/01/19 01:56:22;;;;;;;10.97;3.20;;;5.50;90.40;;;;;;6276643;22;20000;-81
2021/01/19 01:58:48;;;;;;;11.30;3.47;;;5.50;90.40;;;;;;6276234;22;20050;-81
2021/01/19 02:01:14;;;;;;;9.97;2.70;;;5.50;90.20;;;;;;6276167;22;19996;-81
2021/01/19 02:03:40;;;;;;;9.30;2.73;;;5.50;90.10;;;;;;6276450;22;20006;-81
2021/01/19 02:06:06;;;;;;;16.00;3.23;;;5.50;90.00;;;;;;6249340;22;20004;-81
2021/01/19 02:08:48;;;;;;;6.27;2.50;;;5.50;89.80;;;;;;6249584;22;20004;-81
2021/01/19 02:11:22;;;;;;;8.83;2.93;;;5.50;90.00;;;;;;6248954;22;20003;-81
2021/01/19 02:14:16;;;;;;;9.50;2.70;;;5.50;89.20;;;;;;6276294;22;20074;-81
2021/01/19 02:16:59;;;;;;;9.80;2.30;;;5.50;89.40;;;;;;6276325;22;19999;-81
2021/01/19 02:19:31;;;;;;;14.67;3.10;;;5.50;89.20;;;;;;6248636;22;20004;-81
2021/01/19 02:22:53;;;;;;;8.97;2.47;;;5.50;88.90;;;;;;6276159;22;20049;-81
2021/01/19 02:25:25;;;;;;;8.73;2.70;;;5.50;88.10;;;;;;6123168;23;20342;-81
2021/01/19 02:28:18;;;;;;;11.40;2.20;;;5.50;88.50;;;;;;6123167;23;20002;-81
2021/01/19 02:30:49;;;;;;;9.83;2.37;;;5.50;87.60;;;;;;6247487;22;20000;-81
2021/01/19 02:33:32;;;;;;;11.93;2.60;;;5.50;87.50;;;;;;6248823;22;20008;-81
2021/01/19 02:36:15;;;;;;;7.83;1.90;;;5.50;87.70;;;;;;6276476;22;20004;-81
2021/01/19 02:38:57;;;;;;;8.57;1.90;;;5.50;87.40;;;;;;6276404;22;20425;-81
2021/01/19 02:41:24;;;;;;;9.07;1.90;;;5.50;87.40;;;;;;6276614;22;19996;-81
2021/01/19 02:44:06;;;;;;;10.53;3.17;;;5.50;87.10;;;;;;6276430;22;20371;-82
2021/01/19 02:46:33;;;;;;;8.87;2.13;;;5.40;87.00;;;;;;6276610;22;20054;-81
2021/01/19 02:48:58;;;;;;;10.20;1.83;;;5.40;87.50;;;;;;6248780;22;20043;-81
2021/01/19 02:51:25;;;;;;;9.07;2.10;;;5.40;86.60;;;;;;6276554;22;20000;-81
2021/01/19 02:53:52;;;;;;;6.90;2.00;;;5.40;86.60;;;;;;6276349;22;19999;-82
2021/01/19 02:56:34;;;;;;;6.47;1.70;;;5.40;86.30;;;;;;6276142;22;20339;-81
2021/01/19 02:59:13;;;;;;;8.17;2.20;;;5.40;85.50;;;;;;6248326;22;20007;-81
2021/01/19 03:01:47;;;;;;;8.95;2.13;;;5.40;85.90;;;;;;6276631;22;20003;-82
2021/01/19 03:04:13;;;;;;;8.70;1.80;;;5.40;85.40;;;;;;6276417;22;19996;-82
2021/01/19 03:06:42;;;;;;;9.03;1.90;;;5.40;85.30;;;;;;6276361;22;20050;-81
2021/01/19 03:09:09;;;;;;;10.85;1.90;;;5.40;84.90;;;;;;6275928;22;20472;-81
2021/01/19 03:11:36;;;;;;;6.90;1.83;;;5.40;84.60;;;;;;6249654;22;20003;-81
2021/01/19 03:14:03;;;;;;;9.83;2.43;;;5.40;84.70;;;;;;6276843;22;20130;-81
2021/01/19 03:16:29;;;;;;;9.63;1.70;;;5.40;84.20;;;;;;6276342;22;20035;-81
2021/01/19 03:18:55;;;;;;;7.33;1.77;;;5.40;84.30;;;;;;6248353;22;20307;-81
2021/01/19 03:21:20;;;;;;;4.67;1.23;;;5.40;84.50;;;;;;6276193;22;20337;-82
2021/01/19 03:23:46;;;;;;;10.27;2.20;;;5.40;84.00;;;;;;6276631;22;20000;-81
2021/01/19 03:26:11;;;;;;;11.67;1.70;;;5.40;83.70;;;;;;6276676;22;20002;-81
2021/01/19 03:28:37;;;;;;;5.23;1.40;;;5.40;83.60;;;;;;6276772;22;20053;-81
2021/01/19 03:31:03;;;;;;;9.57;1.80;;;5.40;83.50;;;;;;6275902;22;20434;-81
2021/01/19 03:33:30;;;;;;;7.33;1.73;;;5.40;83.70;;;;;;6276013;22;20397;-82
2021/01/19 03:35:55;;;;;;;7.13;1.60;;;5.40;83.50;;;;;;6276124;22;20049;-81
2021/01/19 03:38:21;;;;;;;9.03;2.20;;;5.30;83.80;;;;;;6248238;22;20008;-81
2021/01/19 03:40:47;;;;;;;7.77;1.60;;;5.30;83.70;;;;;;6274741;22;20004;-81
2021/01/19 03:43:12;;;;;;;7.63;1.90;;;5.30;83.90;;;;;;6275597;22;19996;-81
2021/01/19 03:45:38;;;;;;;8.03;2.30;;;5.40;84.00;;;;;;6275714;22;20004;-80
2021/01/19 03:48:04;;;;;;;11.43;1.60;;;5.40;84.00;;;;;;6276364;22;20000;-81
2021/01/19 03:50:31;;;;;;;8.00;2.10;;;5.30;83.80;;;;;;6247569;22;20434;-81
2021/01/19 03:52:57;;;;;;;7.47;1.83;;;5.40;84.50;;;;;;6248093;22;20520;-81
2021/01/19 03:55:22;;;;;;;6.67;1.93;;;5.40;84.90;;;;;;6275475;22;20000;-81
2021/01/19 03:57:48;;;;;;;9.20;1.53;;;5.30;84.70;;;;;;6274652;22;20015;-81
2021/01/19 04:00:15;;;;;;;7.40;1.80;;;5.30;85.40;;;;;;6273581;22;20024;-81
2021/01/19 04:02:41;;;;;;;8.03;1.63;;;5.30;85.50;;;;;;6275407;22;19995;-81
2021/01/19 04:05:08;;;;;;;6.87;1.90;;;5.30;85.70;;;;;;6275402;22;20004;-81
2021/01/19 04:07:38;;;;;;;9.97;2.10;;;5.30;86.10;;;;;;6275344;22;20022;-81
2021/01/19 04:10:04;;;;;;;11.07;2.47;;;5.30;86.00;;;;;;6274708;22;20003;-81
2021/01/19 04:12:30;;;;;;;11.33;2.33;;;5.30;86.30;;;;;;6247950;22;20008;-81
2021/01/19 04:14:55;;;;;;;11.00;2.67;;;5.30;86.90;;;;;;6275130;22;20418;-81
2021/01/19 04:17:21;;;;;;;7.33;2.30;;;5.30;86.50;;;;;;6275349;22;20007;-81
2021/01/19 04:19:47;;;;;;;10.53;2.00;;;5.30;86.80;;;;;;6274539;22;20438;-81
2021/01/19 04:22:13;;;;;;;7.00;2.23;;;5.30;86.80;;;;;;6275169;22;19995;-81
2021/01/19 04:24:38;;;;;;;6.93;1.87;;;5.30;86.80;;;;;;6275210;22;20347;-81
2021/01/19 04:27:04;;;;;;;11.20;2.43;;;5.30;87.10;;;;;;6275216;22;19999;-80
2021/01/19 04:29:30;;;;;;;7.20;2.13;;;5.30;87.20;;;;;;6274696;22;20066;-81
2021/01/19 04:31:55;;;;;;;9.97;2.57;;;5.20;87.70;;;;;;6274454;22;20432;-80
2021/01/19 04:34:21;;;;;;;7.23;2.17;;;5.20;87.90;;;;;;6275207;22;20354;-81
2021/01/19 04:36:46;;;;;;;8.00;2.13;;;5.20;88.40;;;;;;6275212;22;20377;-81
2021/01/19 04:39:15;;;;;;;9.37;2.40;;;5.20;88.20;;;;;;6247333;22;20008;-81
2021/01/19 04:41:46;;;;;;;7.78;1.60;;;5.20;89.00;;;;;;6275138;22;20007;-81
2021/01/19 04:44:12;;;;;;;9.03;2.10;;;5.20;89.40;;;;;;6275105;22;20045;-80
2021/01/19 04:46:40;;;;;;;13.03;2.10;;;5.10;89.00;;;;;;6275368;22;20331;-81
2021/01/19 04:49:06;;;;;;;8.93;2.60;;;5.10;89.70;;;;;;6274299;22;20000;-81
2021/01/19 04:51:34;;;;;;;6.07;1.93;;;5.10;90.00;;;;;;6275144;22;20007;-80
2021/01/19 04:54:05;;;;;;;8.70;2.17;;;5.10;89.70;;;;;;6275018;22;19999;-81
2021/01/19 04:56:31;;;;;;;7.37;2.20;;;5.10;90.10;;;;;;6275181;22;20029;-81
2021/01/19 04:58:57;;;;;;;9.27;2.70;;;5.10;90.30;;;;;;6274399;22;20003;-81
2021/01/19 05:01:35;;;;;;;10.13;2.47;;;5.10;90.20;;;;;;6247922;22;20010;-81
2021/01/19 05:04:26;;;;;;;11.83;2.80;;;5.10;90.70;;;;;;6247886;22;20004;-81
2021/01/19 05:06:51;;;;;;;11.17;3.03;;;5.10;90.80;;;;;;6275169;22;19996;-81
2021/01/19 05:09:21;;;;;;;8.67;2.60;;;5.10;90.70;;;;;;6274303;22;20004;-81
2021/01/19 05:11:52;;;;;;;9.30;2.70;;;5.00;90.80;;;;;;6247834;22;20030;-81
2021/01/19 05:14:22;;;;;;;8.07;2.63;;;5.10;91.00;;;;;;6247919;22;20000;-81
2021/01/19 05:16:50;;;;;;;9.50;2.77;;;5.10;91.10;;;;;;6275212;22;20011;-81
2021/01/19 05:19:21;;;;;;;10.90;3.03;;;5.00;91.10;;;;;;6274550;22;20334;-81
2021/01/19 05:21:52;;;;;;;10.87;3.20;;;5.00;91.30;;;;;;6248631;22;20227;-81
2021/01/19 05:24:17;;;;;;;13.33;3.23;;;5.10;91.40;;;;;;6275407;22;20030;-81
2021/01/19 05:26:43;;;;;;;13.93;3.37;;;5.10;91.40;;;;;;6275568;22;19999;-81
2021/01/19 05:29:09;;;;;;;11.77;3.17;;;5.10;91.50;;;;;;6274347;22;20011;-81
2021/01/19 05:31:35;;;;;;;15.60;3.20;;;5.10;91.60;;;;;;6274904;22;20008;-81
2021/01/19 05:34:11;;;;;;;13.27;3.20;;;5.10;91.80;;;;;;6248713;22;20089;-80
2021/01/19 05:36:48;;;;;;;10.70;3.40;;;5.00;91.70;;;;;;6248321;22;20014;-82
2021/01/19 05:39:19;;;;;;;13.13;3.23;;;5.00;91.90;;;;;;6274650;22;20051;-80
2021/01/19 05:41:52;;;;;;;14.30;2.97;;;5.00;92.10;;;;;;6248156;22;20000;-81
2021/01/19 05:44:30;;;;;;;13.47;3.20;;;5.00;92.40;;;;;;6249505;22;20090;-80
2021/01/19 05:46:59;;;;;;;13.57;3.33;;;4.90;92.50;;;;;;6277425;22;19996;-80
2021/01/19 05:49:33;;;;;;;13.25;3.20;;;5.00;92.80;;;;;;6249711;22;20004;-80
2021/01/19 05:52:03;;;;;;;13.03;3.33;;;4.90;92.70;;;;;;6277070;22;20450;-81
2021/01/19 05:54:34;;;;;;;11.57;3.33;;;4.90;92.90;;;;;;6277623;22;20003;-80
2021/01/19 05:57:05;;;;;;;11.97;3.40;;;4.90;93.00;;;;;;6277979;22;20054;-81
2021/01/19 05:59:42;;;;;;;10.47;3.50;;;4.90;93.00;;;;;;6276356;22;19999;-80
2021/01/19 06:02:13;;;;;;;10.90;3.63;;;4.90;93.00;;;;;;6249909;22;20028;-81
2021/01/19 06:04:47;;;;;;;12.03;3.50;;;5.00;93.30;;;;;;6277064;22;20004;-80
2021/01/19 06:07:15;;;;;;;14.03;3.77;;;5.00;93.10;;;;;;6250652;22;20011;-81
2021/01/19 06:09:42;;;;;;;9.03;3.00;;;5.00;93.20;;;;;;6276898;22;20003;-81
2021/01/19 06:12:08;;;;;;;11.00;3.43;;;5.00;93.20;;;;;;6250695;22;20004;-80
2021/01/19 06:14:34;;;;;;;10.60;3.17;;;4.90;93.50;;;;;;6277579;22;20008;-81
2021/01/19 06:17:23;;;;;;;20.00;3.43;;;4.90;93.50;;;;;;6278640;22;20034;-81
2021/01/19 06:19:50;;;;;;;11.50;3.42;;;4.90;93.50;;;;;;6234477;22;20016;-80
2021/01/19 06:22:23;;;;;;;15.03;3.50;;;4.90;93.70;;;;;;6278007;22;20003;-81
2021/01/19 06:24:50;;;;;;;7.83;2.77;;;4.90;93.70;;;;;;6278991;22;19999;-81
2021/01/19 06:27:24;;;;;;;9.97;2.90;;;5.00;93.80;;;;;;6279129;22;19996;-81
2021/01/19 06:29:59;;;;;;;10.47;3.20;;;5.00;93.80;;;;;;6278044;22;20004;-81
2021/01/19 06:32:33;;;;;;;12.53;3.20;;;5.00;93.90;;;;;;6251626;22;20032;-81
2021/01/19 06:35:17;;;;;;;10.13;2.90;;;5.00;94.00;;;;;;6278981;22;20003;-81
2021/01/19 06:37:44;;;;;;;12.97;3.33;;;5.00;93.90;;;;;;6279992;22;20000;-81
2021/01/19 06:40:15;;;;;;;15.27;3.70;;;5.00;94.30;;;;;;6251729;22;20000;-81
2021/01/19 06:42:40;;;;;;;12.30;2.70;;;5.00;94.20;;;;;;6279855;22;19996;-81
2021/01/19 06:45:13;;;;;;;8.70;2.70;;;5.00;94.30;;;;;;6281112;22;20003;-81
2021/01/19 06:47:47;;;;;;;10.77;2.83;;;5.00;94.30;;;;;;6282747;22;20000;-81
2021/01/19 06:50:13;;;;;;;9.53;2.77;;;5.10;94.50;;;;;;6281331;22;20000;-81
2021/01/19 06:52:48;;;;;;;12.73;3.47;;;5.10;94.50;;;;;;6282296;22;20064;-82
2021/01/19 06:55:21;;;;;;;5.87;2.40;;;5.10;94.50;;;;;;6254842;22;20003;-81
2021/01/19 06:57:50;;;;;;;8.90;2.53;;;5.10;94.50;;;;;;6282477;22;20498;-82
2021/01/19 07:00:19;;;;;;;8.55;2.72;;;5.10;94.70;;;;;;6281716;22;20429;-81
2021/01/19 07:02:49;;;;;;;10.30;2.30;;;5.10;94.90;;;;;;6282820;22;20071;-81
2021/01/19 07:05:24;;;;;;;6.00;1.90;;;5.20;94.90;;;;;;6255308;22;20006;-81
2021/01/19 07:08:20;;;;;;;11.97;2.07;;;5.20;95.00;;;;;;6282076;22;20011;-82
2021/01/19 07:11:23;;;;;;;8.70;1.77;;;5.20;95.10;;;;;;6281639;22;20004;-81
2021/01/19 07:13:49;;;;;;;5.33;1.70;;;5.20;95.10;;;;;;6255690;22;20042;-81
2021/01/19 07:16:22;;;;;;;3.93;1.30;;;5.30;95.20;;;;;;6282208;22;19999;-82
2021/01/19 07:18:51;;;;;;;7.17;1.50;;;5.30;95.20;;;;;;6282040;22;20007;-81
2021/01/19 07:21:20;;;;;;;4.87;1.30;;;5.30;95.20;;;;;;6281723;22;19996;-82
2021/01/19 07:23:48;;;;;;;5.10;1.38;;;5.30;95.20;;;;;;6281916;22;20465;-82
2021/01/19 07:26:17;;;;;;;5.90;1.30;;;5.30;95.20;;;;;;6282213;22;20019;-82
2021/01/19 07:28:42;;;;;;;7.07;1.20;;;5.30;95.20;;;;;;6255478;22;19996;-81
2021/01/19 07:31:11;;;;;;;6.30;1.70;;;5.30;95.20;;;;;;6281465;22;20055;-81
2021/01/19 07:33:40;;;;;;;5.53;1.20;;;5.30;95.20;;;;;;6255519;22;20011;-82
2021/01/19 07:36:06;;;;;;;5.35;1.15;;;5.40;95.40;;;;;;6282792;22;20006;-82
2021/01/19 07:38:31;;;;;;;5.83;1.07;;;5.30;95.40;;;;;;6254961;22;20331;-82
2021/01/19 07:40:58;;;;;;;4.10;1.33;;;5.30;95.50;;;;;;6281423;22;20007;-82
2021/01/19 07:43:25;;;;;;;2.80;1.13;;;5.30;95.60;;;;;;6255155;22;20007;-81
2021/01/19 07:45:54;;;;;;;4.93;1.20;;;5.30;95.60;;;;;;6282584;22;20422;-80
2021/01/19 07:48:30;;;;;;;;;;;5.30;95.70;;;;;;6283372;22;20022;-82
2021/01/19 07:50:56;;;;;;;4.47;1.10;;;5.30;95.70;;;;;;6281722;22;19907;-82
2021/01/19 07:53:22;;;;;;;3.53;1.03;;;5.30;95.80;;;;;;6281965;22;20007;-82
2021/01/19 07:55:48;;;;;;;4.20;1.40;;;5.40;95.70;;;;;;6283196;22;20359;-82
2021/01/19 07:58:22;;;;;;;2.50;0.90;;;5.30;95.60;;;;;;6255454;22;20004;-82
2021/01/19 08:00:57;;;;;;;4.60;1.20;;;5.40;95.70;;;;;;6281804;22;20004;-81
2021/01/19 08:03:29;;;;;;;7.50;1.30;;;5.40;95.70;;;;;;6282483;22;20006;-82
2021/01/19 08:06:06;;;;;;;4.33;1.07;;;5.40;95.70;;;;;;6282645;22;20004;-81
2021/01/19 08:08:38;;;;;;;3.70;1.33;;;5.40;95.70;;;;;;6255437;22;20395;-82
2021/01/19 08:11:04;;;;;;;4.50;1.63;;;5.40;95.70;;;;;;6255417;22;20438;-82
2021/01/19 08:13:30;;;;;;;6.23;1.20;;;5.40;95.80;;;;;;6256406;22;20015;-82
2021/01/19 08:16:08;;;;;;;2.77;1.20;;;5.40;95.60;;;;;;6283943;22;20000;-81
2021/01/19 08:18:38;;;;;;;5.63;1.50;;;5.40;95.80;;;;;;6283379;22;19999;-81
2021/01/19 08:21:06;;;;;;;5.00;1.33;;;5.40;95.70;;;;;;6280087;22;20030;-80
2021/01/19 08:23:33;;;;;;;4.00;1.20;;;5.40;95.70;;;;;;6278542;22;20082;-81
2021/01/19 08:26:09;;;;;;;3.37;1.10;;;5.40;95.80;;;;;;6278176;22;20064;-81
2021/01/19 08:28:36;;;;;;;3.60;1.30;;;5.40;95.80;;;;;;6250568;22;20000;-81
2021/01/19 08:31:02;;;;;;;4.53;1.10;;;5.40;95.90;;;;;;6250526;22;20003;-81
2021/01/19 08:33:28;;;;;;;3.67;1.20;;;5.40;95.90;;;;;;6251132;22;20095;-82
2021/01/19 08:35:55;;;;;;;5.47;1.33;;;5.40;96.00;;;;;;6282385;22;20426;-81
2021/01/19 08:38:24;;;;;;;7.93;1.20;;;5.40;96.00;;;;;;6250695;22;20342;-81
2021/01/19 08:40:50;;;;;;;3.10;1.10;;;5.50;95.90;;;;;;6277127;22;20050;-81
2021/01/19 08:43:17;;;;;;;4.47;1.50;;;5.40;96.30;;;;;;6250227;22;20058;-82
2021/01/19 08:45:43;;;;;;;4.47;1.33;;;5.40;96.00;;;;;;6277365;22;19996;-81
2021/01/19 08:48:10;;;;;;;2.67;1.23;;;5.50;96.00;;;;;;6276945;22;20011;-81
2021/01/19 08:50:41;;;;;;;3.63;1.40;;;5.50;95.80;;;;;;6276560;22;20049;-81
2021/01/19 08:53:14;;;;;;;4.40;1.40;;;5.50;95.90;;;;;;6249737;22;20323;-81
2021/01/19 08:55:42;;;;;;;5.67;1.40;;;5.50;95.90;;;;;;6277598;22;20433;-81
2021/01/19 08:58:08;;;;;;;2.95;1.23;;;5.50;95.80;;;;;;6277115;22;20024;-81
2021/01/19 09:00:34;;;;;;;7.83;2.13;;;5.50;95.90;;;;;;6276342;22;20029;-81
2021/01/19 09:03:09;;;;;;;6.83;2.30;;;5.50;95.90;;;;;;6277283;22;20023;-81
2021/01/19 09:05:35;;;;;;;3.90;1.43;;;5.60;96.00;;;;;;6250849;22;20000;-82
2021/01/19 09:08:12;;;;;;;4.77;1.50;;;5.50;96.00;;;;;;6277920;22;19996;-81
2021/01/19 09:10:37;;;;;;;5.47;1.30;;;5.60;96.00;;;;;;6277269;22;20439;-82
2021/01/19 09:13:03;;;;;;;6.97;1.50;;;5.50;96.00;;;;;;6250120;22;20023;-81
2021/01/19 09:15:37;;;;;;;4.57;1.40;;;5.60;96.00;;;;;;6250063;22;20057;-82
2021/01/19 09:18:02;;;;;;;7.33;1.70;;;5.60;95.90;;;;;;6251937;22;20089;-81
2021/01/19 09:20:29;;;;;;;6.50;1.83;;;5.50;95.90;;;;;;6252301;22;20434;-82
2021/01/19 09:23:09;;;;;;;6.40;1.70;;;5.60;96.00;;;;;;6280119;22;20000;-81
2021/01/19 09:25:35;;;;;;;4.77;1.53;;;5.60;95.90;;;;;;6280202;22;20003;-81
2021/01/19 09:28:05;;;;;;;4.30;1.10;;;5.60;96.00;;;;;;6279660;22;19992;-82
2021/01/19 09:30:35;;;;;;;4.40;1.40;;;5.60;95.90;;;;;;6252592;22;20314;-82
2021/01/19 09:33:05;;;;;;;5.47;2.35;;;5.60;95.80;;;;;;6277233;22;20007;-81
2021/01/19 09:35:32;;;;;;;6.50;1.90;;;5.70;95.70;;;;;;6278228;22;20061;-81
2021/01/19 09:37:57;;;;;;;7.87;1.77;;;5.60;95.70;;;;;;6278249;22;20431;-81
2021/01/19 09:40:34;;;;;;;5.00;1.97;;;5.70;95.80;;;;;;6277176;22;20084;-81
2021/01/19 09:43:12;;;;;;;5.40;2.23;;;5.70;95.80;;;;;;6278733;22;19999;-81
2021/01/19 09:45:38;;;;;;;4.20;1.90;;;5.70;95.70;;;;;;6278754;22;20407;-81
2021/01/19 09:48:05;;;;;;;6.23;1.60;;;5.70;95.80;;;;;;6278071;22;20046;-82
2021/01/19 09:50:30;;;;;;;3.33;1.60;;;5.70;95.70;;;;;;6250753;22;20061;-81
2021/01/19 09:52:56;;;;;;;5.23;2.30;;;5.70;95.80;;;;;;6278435;22;20343;-81
2021/01/19 09:55:28;;;;;;;4.67;1.77;;;5.80;95.90;;;;;;6250651;22;20438;-80
2021/01/19 09:58:00;;;;;;;5.27;2.23;;;5.70;95.90;;;;;;6277397;22;20003;-81
2021/01/19 10:00:34;;;;;;;4.77;2.73;;;5.80;96.00;;;;;;6277125;22;20447;-80
2021/01/19 10:03:10;;;;;;;6.43;3.13;;;5.70;96.00;;;;;;6277491;22;20007;-80
2021/01/19 10:05:36;;;;;;;7.50;3.57;;;5.80;96.10;;;;;;6251273;22;20004;-80
2021/01/19 10:08:01;;;;;;;8.73;3.60;;;5.80;96.10;;;;;;6277291;22;20002;-80
2021/01/19 10:10:34;;;;;;;6.90;2.90;;;5.80;96.20;;;;;;6249754;22;20012;-81
2021/01/19 10:13:04;;;;;;;6.20;2.90;;;5.80;96.00;;;;;;6251393;22;20389;-81
2021/01/19 10:15:30;;;;;;;10.43;4.47;;;5.80;96.10;;;;;;6251469;22;20007;-80
2021/01/19 10:17:57;;;;;;;8.07;4.10;;;5.80;96.10;;;;;;6277934;22;20041;-81
2021/01/19 10:20:38;;;;;;;7.63;3.70;;;5.80;96.20;;;;;;6250442;22;20098;-80
2021/01/19 10:23:05;;;;;;;7.37;3.50;;;5.90;96.20;;;;;;6278166;22;20003;-81
2021/01/19 10:25:33;;;;;;;10.47;4.20;;;5.90;96.20;;;;;;6278464;22;20003;-81
2021/01/19 10:28:00;;;;;;;9.37;4.30;;;6.00;96.10;;;;;;6277647;22;20085;-80
2021/01/19 10:30:29;;;;;;;9.17;4.10;;;6.00;96.10;;;;;;6277427;22;20000;-81
2021/01/19 10:32:55;;;;;;;7.90;3.22;;;6.00;96.20;;;;;;6277273;22;20015;-81
2021/01/19 10:35:33;;;;;;;6.60;2.30;;;6.00;96.10;;;;;;6250826;22;20004;-80
2021/01/19 10:38:04;;;;;;;6.43;2.30;;;6.10;95.90;;;;;;6278851;22;20007;-80
2021/01/19 10:40:30;;;;;;;4.07;2.03;;;6.10;96.10;;;;;;6276555;22;20004;-80
2021/01/19 10:42:56;;;;;;;4.07;1.70;;;6.20;96.00;;;;;;6277453;22;20046;-80
2021/01/19 10:45:25;;;;;;;3.00;1.50;;;6.10;96.10;;;;;;6277623;22;20480;-80
2021/01/19 10:47:51;;;;;;;5.82;1.90;;;6.10;96.20;;;;;;6250177;22;20082;-80
2021/01/19 10:50:25;;;;;;;3.23;1.40;;;6.20;96.20;;;;;;6249287;22;20004;-80
2021/01/19 10:52:53;;;;;;;4.00;1.40;;;6.20;96.10;;;;;;6276556;22;20363;-80
2021/01/19 10:55:18;;;;;;;4.20;1.80;;;6.20;96.10;;;;;;6249980;22;20016;-80
2021/01/19 10:57:44;;;;;;;6.20;2.47;;;6.20;96.20;;;;;;6277724;22;20261;-80
2021/01/19 11:00:10;;;;;;;5.30;2.10;;;6.20;96.10;;;;;;6277091;22;20039;-81
2021/01/19 11:02:36;;;;;;;5.63;2.30;;;6.20;96.10;;;;;;6277370;22;20147;-80
2021/01/19 11:05:01;;;;;;;4.60;1.87;;;6.20;96.20;;;;;;6277179;22;20363;-81
2021/01/19 11:07:27;;;;;;;3.13;1.80;;;6.30;96.20;;;;;;6277208;22;20441;-81
2021/01/19 11:09:53;;;;;;;2.27;1.37;;;6.30;96.30;;;;;;6276734;22;20426;-81
2021/01/19 11:12:19;;;;;;;4.47;1.97;;;6.30;96.20;;;;;;6276489;22;20520;-80
2021/01/19 11:14:45;;;;;;;3.50;1.90;;;6.30;96.50;;;;;;6276661;22;20027;-81
2021/01/19 11:17:11;;;;;;;4.57;1.90;;;6.20;96.50;;;;;;6276511;22;20071;-80
2021/01/19 11:19:36;;;;;;;4.97;1.53;;;6.30;96.60;;;;;;6275514;22;20431;-80
2021/01/19 11:22:02;;;;;;;6.47;1.53;;;6.30;96.70;;;;;;6248808;22;20046;-80
2021/01/19 11:24:28;;;;;;;5.13;1.70;;;6.40;96.70;;;;;;6276357;22;20090;-80
2021/01/19 11:26:54;;;;;;;4.83;2.20;;;6.30;96.90;;;;;;6278208;22;20000;-81
2021/01/19 11:29:20;;;;;;;3.73;1.90;;;6.30;97.00;;;;;;6275172;22;20331;-81
2021/01/19 11:31:46;;;;;;;4.47;2.27;;;6.30;97.10;;;;;;6276193;22;19999;-80
2021/01/19 11:34:12;;;;;;;7.30;2.70;;;6.30;97.30;;;;;;6299771;22;20041;-86
2021/01/19 11:36:39;;;;;;;4.63;2.20;;;6.40;97.70;;;;;;6280066;22;19999;-86
2021/01/19 11:39:07;;;;;;;5.20;2.60;;;6.40;97.50;;;;;;6278839;22;20007;-86
2021/01/19 11:41:35;;;;;;;6.23;2.83;;;6.40;97.40;;;;;;6278977;22;20003;-87
2021/01/19 11:44:01;;;;;;;5.97;2.57;;;6.40;97.40;;;;;;6257393;22;20489;-88
2021/01/19 11:46:28;;;;;;;3.73;2.30;;;6.40;97.30;;;;;;6277930;22;20007;-88
2021/01/19 11:48:56;;;;;;;5.03;2.50;;;6.40;97.50;;;;;;6247986;22;20000;-88
2021/01/19 11:51:34;;;;;;;4.63;2.33;;;6.40;97.50;;;;;;6248629;22;20000;-88
2021/01/19 11:54:02;;;;;;;4.50;2.47;;;6.50;97.60;;;;;;6248159;22;19999;-88
2021/01/19 11:56:39;;;;;;;5.13;3.03;;;6.40;97.70;;;;;;6248591;22;20010;-88
2021/01/19 11:59:06;;;;;;;5.10;2.60;;;6.50;97.70;;;;;;6247693;22;19999;-88
2021/01/19 12:01:32;;;;;;;5.40;2.37;;;6.50;97.70;;;;;;6248532;22;20057;-88
2021/01/19 12:03:58;;;;;;;4.60;2.80;;;6.50;97.80;;;;;;6248437;22;20094;-88
2021/01/19 12:06:24;;;;;;;4.87;2.80;;;6.50;97.80;;;;;;6248320;22;20000;-88
2021/01/19 12:08:51;;;;;;;5.27;2.50;;;6.50;97.90;;;;;;6248257;22;20006;-88
2021/01/19 12:11:18;;;;;;;6.53;3.17;;;6.50;98.10;;;;;;6275306;22;19996;-88
2021/01/19 12:13:44;;;;;;;6.03;3.10;;;6.50;98.10;;;;;;6248078;22;20431;-88
2021/01/19 12:16:11;;;;;;;7.00;3.10;;;6.50;98.20;;;;;;6257671;22;20007;-88
2021/01/19 12:18:38;;;;;;;7.67;3.60;;;6.60;98.20;;;;;;6254680;22;19999;-88
2021/01/19 12:21:05;;;;;;;7.50;3.30;;;6.60;98.20;;;;;;6254367;22;20461;-88
2021/01/19 12:23:31;;;;;;;6.23;3.40;;;6.60;98.20;;;;;;6278640;22;20560;-88
2021/01/19 12:25:57;;;;;;;5.63;3.30;;;6.60;98.30;;;;;;6253720;22;20057;-86
2021/01/19 12:28:33;;;;;;;8.20;3.60;;;6.60;98.40;;;;;;6255494;22;20454;-87
2021/01/19 12:30:58;;;;;;;5.40;3.80;;;6.70;98.60;;;;;;6253094;22;20004;-88
2021/01/19 12:33:24;;;;;;;5.77;3.67;;;6.70;98.70;;;;;;6281815;22;20068;-88
2021/01/19 12:35:51;;;;;;;7.13;3.77;;;6.70;98.70;;;;;;6254464;22;20311;-87
2021/01/19 12:38:17;;;;;;;5.50;3.70;;;6.70;98.80;;;;;;6281847;22;20003;-87
2021/01/19 12:40:43;;;;;;;7.47;3.73;;;6.70;98.70;;;;;;6253835;22;20088;-88
2021/01/19 12:43:09;;;;;;;6.27;4.10;;;6.70;98.80;;;;;;6258186;22;19996;-88
2021/01/19 12:45:36;;;;;;;8.20;4.10;;;6.70;98.90;;;;;;6257724;22;20014;-87
2021/01/19 12:48:02;;;;;;;9.97;3.50;;;6.80;98.70;;;;;;6256036;22;20026;-88
2021/01/19 12:50:28;;;;;;;6.77;3.93;;;6.80;98.70;;;;;;6256601;22;20012;-87
2021/01/19 12:52:54;;;;;;;6.13;3.80;;;6.90;98.80;;;;;;6285453;22;20000;-88
2021/01/19 12:55:20;;;;;;;6.47;3.80;;;6.90;98.60;;;;;;6263260;22;20014;-88
2021/01/19 12:57:46;;;;;;;7.63;3.83;;;6.90;98.70;;;;;;6277883;22;20004;-85
2021/01/19 13:00:12;;;;;;;6.50;3.67;;;6.90;98.70;;;;;;6295664;22;19999;-86
2021/01/19 13:02:37;;;;;;;6.20;3.40;;;7.00;98.60;;;;;;6267688;22;20035;-87